Airfield :
LOGIN :

Register | Disclaimer

   EN    FR    IT 

 










Legend :    VFR   Marginal VFR   IFR   Intensive IFR   Very Intensive IFR
Visi :
Ceiling :
>= 8 km
>= 3000ft
5 to 8 km
1000 to 3000 ft
1500m to 5 km
500 to 1000 ft
800 to 1500m
200 to 500 ft
< 800m
< 200 ft
Symbols :   Thunderstorms  Fog  Heavy snow  Heavy precipitations  Wind > 20 kt
SIGMETs :     Misc.  Thunderstorms  Icing  Turbulence  Mountain Waves  Volcanic Ashes







- Airport Elevation : 512 ft
- IATA code : URO
- Download approach charts


LFOP - Rouen Vallée de Seine

CURRENT METAR :
  • 210700Z AUTO 33003KT 3300 BR NSC M05/M06 Q1023 NOSIG

EXPIRED METARs :
  • 210630Z AUTO 34005KT 3800 BR NSC M04/M05 Q1023 NOSIG
  • 210600Z AUTO 31002KT 3400 BR NSC M04/M05 Q1022 NOSIG
  • 210530Z AUTO 01003KT 5000 BR NSC M04/M05 Q1022 NOSIG
  • 210500Z AUTO 04004KT 6000 NSC M04/M05 Q1022
  • 210430Z AUTO 35004KT 5000 BR NSC M04/M04 Q1022
  • 210400Z AUTO 04003KT 4600 BR NSC M04/M05 Q1022

TAF TAF LFOP
Valid from the 21 at 06:00 until the 22 at 06:00 UTC


210500Z 2106/2206 VRB03KT 8000 NSC
TEMPO 2106/2109 4000 BR
BECMG 2201/2203 18010KT
BECMG 2203/2205 OVC008
TEMPO 2203/2206 4000 SNRA
PROB40
TEMPO 2203/2206 2000 SN OVC003
ATIS : +33 2 35 80 80 34
Met : +33 2 32 86 52 80
No reported NOTAMs for that airfield.



MET'MAP, your aeronautical weather chart ! - Copyright ORBIFLY December 2007 - Disclaimer

ORBIFLY MET'MAP TEAM :

Programming & Development : Alexandra Zaïnal
Concept & Development : Baudouin d'Aumeries
Co-Development & Prog : Marc-Olivier Méhu
Technical & hardware support : Manuel Goepfert

Contact : metmap@orbifly.com




SOURCES & CREDITS :

   NOAA